C Challenger — WCX7953 — position and weather

sailwx.info

Track history (hours):
 
Tides and Currents Weather Stations Pressure Air Temp Water Temp Dewpoint Dewpoint Depression Visibility Wind Speed Wind Dir Waves Ship Positions

C Challenger

Owner: ALPHA MARINE SERVICES, GALLIANO, LA. More information available from US FCC via Universal Licensing System and Coast Guard Vessel Documentation Center.

Last reported at 2016-Apr-19 19:13 UTC. Time now 2016-Apr-29 12:00 UTC.
Position N 29°20' W 090°44'.
Warning: this ship's position is 9 days out of date.

Length 77 m; draft 4 m.

MMSI: 367124210.

Date/timePositionNaut miles runAvg speedWind from/ knotsBaromVisibWave heightAir tempDewpointWater temp
2016-Apr-19 19:13N 29°20' W 090°44'3 4.9
2016-Apr-19 18:31N 29°23' W 090°44'5 5.5
2016-Apr-19 17:33N 29°29' W 090°43'4 4.2
2016-Apr-19 16:33N 29°33' W 090°42'0 0.4
2016-Apr-19 15:31N 29°33' W 090°41'0 0.0
2016-Apr-19 14:31N 29°33' W 090°41'0 0.0
2016-Apr-19 13:31N 29°33' W 090°41'0 0.0
2016-Apr-19 12:31N 29°33' W 090°41'0 0.0
2016-Apr-19 11:31N 29°33' W 090°41'0 0.0
2016-Apr-19 10:31N 29°33' W 090°41'0 0.0
2016-Apr-19 09:31N 29°33' W 090°41'0 0.0
2016-Apr-19 08:31N 29°33' W 090°41'0 0.0
2016-Apr-19 07:31N 29°33' W 090°41'0 0.0
2016-Apr-19 06:31N 29°33' W 090°41'0 0.0
2016-Apr-19 05:31N 29°33' W 090°41'0 0.0
2016-Apr-19 04:31N 29°33' W 090°41'0 0.0
2016-Apr-19 03:31N 29°33' W 090°41'0 0.0
2016-Apr-19 02:31N 29°33' W 090°41'0 0.0
2016-Apr-19 01:28N 29°33' W 090°41'0 0.0
2016-Apr-19 00:31N 29°33' W 090°41'0 0.0
2016-Apr-18 23:31N 29°33' W 090°41'0 0.0
2016-Apr-18 22:31N 29°33' W 090°41'0 0.0
2016-Apr-18 21:31N 29°33' W 090°41'0 0.0
2016-Apr-18 20:31N 29°33' W 090°41'0 0.0
2016-Apr-18 19:31N 29°33' W 090°41'0 0.0
2016-Apr-18 18:31N 29°33' W 090°41'0 0.0
2016-Apr-18 17:31N 29°33' W 090°41'0 0.0
2016-Apr-18 16:31N 29°33' W 090°41'0 0.0
2016-Apr-18 15:31N 29°33' W 090°41'0 0.0
2016-Apr-18 14:31N 29°33' W 090°41'0 0.0
2016-Apr-18 13:31N 29°33' W 090°41'0 0.0
2016-Apr-18 12:31N 29°33' W 090°41'0 0.0
2016-Apr-18 11:28N 29°33' W 090°41'1 0.7
2016-Apr-18 10:31N 29°33' W 090°42'0 0.2
2016-Apr-18 09:31N 29°33' W 090°42'0 0.0
2016-Apr-18 08:31N 29°33' W 090°42'0 0.0
2016-Apr-18 07:33N 29°33' W 090°42'4 4.1
2016-Apr-18 06:33N 29°29' W 090°43'  
2016-Apr-14 03:14N 29°09' W 090°12'0 0.0
2016-Apr-14 01:26N 29°09' W 090°12'0 0.0
2016-Apr-14 00:32N 29°09' W 090°12'  
Track history (hours):
 
Tides and Currents Weather Stations Pressure Air Temp Water Temp Dewpoint Dewpoint Depression Visibility Wind Speed Wind Dir Waves Ship Positions

C Challenger

Owner: ALPHA MARINE SERVICES, GALLIANO, LA. More information available from US FCC via Universal Licensing System and Coast Guard Vessel Documentation Center.

Last reported at 2016-Apr-19 19:13 UTC. Time now 2016-Apr-29 12:00 UTC.
Position N 29°20' W 090°44'.
Warning: this ship's position is 9 days out of date.

Length 77 m; draft 4 m.

MMSI: 367124210.

Date/timePositionNaut miles runAvg speedWind from/ knotsBaromVisibWave heightAir tempDewpointWater temp
2016-Apr-19 19:13N 29°20' W 090°44'3 4.9
2016-Apr-19 18:31N 29°23' W 090°44'5 5.5
2016-Apr-19 17:33N 29°29' W 090°43'4 4.2
2016-Apr-19 16:33N 29°33' W 090°42'0 0.4
2016-Apr-19 15:31N 29°33' W 090°41'0 0.0
2016-Apr-19 14:31N 29°33' W 090°41'0 0.0
2016-Apr-19 13:31N 29°33' W 090°41'0 0.0
2016-Apr-19 12:31N 29°33' W 090°41'0 0.0
2016-Apr-19 11:31N 29°33' W 090°41'0 0.0
2016-Apr-19 10:31N 29°33' W 090°41'0 0.0
2016-Apr-19 09:31N 29°33' W 090°41'0 0.0
2016-Apr-19 08:31N 29°33' W 090°41'0 0.0
2016-Apr-19 07:31N 29°33' W 090°41'0 0.0
2016-Apr-19 06:31N 29°33' W 090°41'0 0.0
2016-Apr-19 05:31N 29°33' W 090°41'0 0.0
2016-Apr-19 04:31N 29°33' W 090°41'0 0.0
2016-Apr-19 03:31N 29°33' W 090°41'0 0.0
2016-Apr-19 02:31N 29°33' W 090°41'0 0.0
2016-Apr-19 01:28N 29°33' W 090°41'0 0.0
2016-Apr-19 00:31N 29°33' W 090°41'0 0.0
2016-Apr-18 23:31N 29°33' W 090°41'0 0.0
2016-Apr-18 22:31N 29°33' W 090°41'0 0.0
2016-Apr-18 21:31N 29°33' W 090°41'0 0.0
2016-Apr-18 20:31N 29°33' W 090°41'0 0.0
2016-Apr-18 19:31N 29°33' W 090°41'0 0.0
2016-Apr-18 18:31N 29°33' W 090°41'0 0.0
2016-Apr-18 17:31N 29°33' W 090°41'0 0.0
2016-Apr-18 16:31N 29°33' W 090°41'0 0.0
2016-Apr-18 15:31N 29°33' W 090°41'0 0.0
2016-Apr-18 14:31N 29°33' W 090°41'0 0.0
2016-Apr-18 13:31N 29°33' W 090°41'0 0.0
2016-Apr-18 12:31N 29°33' W 090°41'0 0.0
2016-Apr-18 11:28N 29°33' W 090°41'1 0.7
2016-Apr-18 10:31N 29°33' W 090°42'0 0.2
2016-Apr-18 09:31N 29°33' W 090°42'0 0.0
2016-Apr-18 08:31N 29°33' W 090°42'0 0.0
2016-Apr-18 07:33N 29°33' W 090°42'4 4.1
2016-Apr-18 06:33N 29°29' W 090°43'  
2016-Apr-14 03:14N 29°09' W 090°12'0 0.0
2016-Apr-14 01:26N 29°09' W 090°12'0 0.0
2016-Apr-14 00:32N 29°09' W 090°12'  

Dump ship's entire track history